createdAt,value
2022-09-21T05:37:25.100Z,16.03
2022-09-21T05:39:52.148Z,17.70
2022-09-21T05:42:19.220Z,15.43
2022-09-21T05:44:46.313Z,14.57
2022-09-21T05:47:22.237Z,17.60
2022-09-21T05:50:10.649Z,14.83
2022-09-21T05:52:40.543Z,14.13
2022-09-21T05:55:29.633Z,16.40
2022-09-21T05:58:21.260Z,18.60
2022-09-21T06:01:16.219Z,15.57
2022-09-21T06:03:43.543Z,14.00
2022-09-21T06:06:10.427Z,13.50
2022-09-21T06:08:37.195Z,14.53
2022-09-21T06:11:04.139Z,12.97
2022-09-21T06:13:31.237Z,12.00
2022-09-21T06:16:01.274Z,14.13
2022-09-21T06:18:28.099Z,11.07
2022-09-21T06:20:54.845Z,10.50
2022-09-21T06:23:21.948Z,11.60
2022-09-21T06:25:58.452Z,12.23
2022-09-21T06:28:25.875Z,12.23
2022-09-21T06:30:55.245Z,11.97
2022-09-21T06:33:23.716Z,12.40
2022-09-21T06:35:58.966Z,10.27
2022-09-21T06:38:27.634Z,12.97
2022-09-21T06:40:55.234Z,8.53
2022-09-21T06:43:22.548Z,9.57
2022-09-21T06:45:57.026Z,10.10
2022-09-21T06:48:24.714Z,9.07
2022-09-21T06:50:51.976Z,9.53
2022-09-21T06:53:18.813Z,14.33
2022-09-21T06:55:45.764Z,11.70
2022-09-21T06:58:12.680Z,6.97
2022-09-21T07:00:39.426Z,7.90
2022-09-21T07:03:06.183Z,7.97
2022-09-21T07:05:34.151Z,10.63
2022-09-21T07:08:01.205Z,10.07
2022-09-21T07:10:28.561Z,7.90
2022-09-21T07:12:56.172Z,9.43
2022-09-21T07:15:23.842Z,7.63
2022-09-21T07:17:52.426Z,8.63
2022-09-21T07:20:19.878Z,8.97
2022-09-21T07:22:46.771Z,10.33
2022-09-21T07:25:13.727Z,9.67
2022-09-21T07:27:40.632Z,9.97
2022-09-21T07:30:08.409Z,8.60
2022-09-21T07:32:36.586Z,9.47
2022-09-21T07:35:03.930Z,7.27
2022-09-21T07:37:34.631Z,7.57
2022-09-21T07:40:05.753Z,11.23
2022-09-21T07:42:32.648Z,8.43
2022-09-21T07:45:03.836Z,8.30
2022-09-21T07:47:31.506Z,6.13
2022-09-21T07:49:58.385Z,8.00
2022-09-21T07:52:25.308Z,7.20
2022-09-21T07:54:52.097Z,8.00
2022-09-21T07:57:54.307Z,10.33
2022-09-21T08:00:21.932Z,7.10
2022-09-21T08:02:48.796Z,5.33
2022-09-21T08:05:16.185Z,7.33
2022-09-21T08:07:43.045Z,5.57
2022-09-21T08:10:10.101Z,4.40
2022-09-21T08:12:37.228Z,4.93
2022-09-21T08:15:04.530Z,4.33
2022-09-21T08:17:31.291Z,6.70
2022-09-21T08:19:58.695Z,6.93
2022-09-21T08:22:26.200Z,6.37
2022-09-21T08:24:53.063Z,6.97
2022-09-21T08:27:20.520Z,8.20
2022-09-21T08:29:47.312Z,4.50
2022-09-21T08:32:32.972Z,5.30
2022-09-21T08:35:01.039Z,7.50
2022-09-21T08:37:28.038Z,6.63
2022-09-21T08:39:54.826Z,5.20
2022-09-21T08:42:50.663Z,6.97
2022-09-21T08:45:20.992Z,4.87
2022-09-21T08:47:52.865Z,6.73
2022-09-21T08:50:22.486Z,18.87
2022-09-21T08:52:52.617Z,11.10
2022-09-21T08:55:20.885Z,6.73
2022-09-21T08:57:47.891Z,12.83
2022-09-21T09:00:17.790Z,7.97
2022-09-21T09:03:18.920Z,7.03
2022-09-21T09:06:02.356Z,5.67
2022-09-21T09:09:10.590Z,4.68
2022-09-21T09:11:46.772Z,3.42
2022-09-21T09:15:05.045Z,4.80
2022-09-21T09:17:50.173Z,4.90
2022-09-21T09:20:42.292Z,4.95
2022-09-21T09:23:20.306Z,4.30
2022-09-21T09:25:51.848Z,5.87
2022-09-21T09:28:33.658Z,3.73
2022-09-21T09:31:18.201Z,6.53
2022-09-21T09:34:03.313Z,4.03
2022-09-21T09:36:56.800Z,5.07
2022-09-21T09:39:20.113Z,3.97
2022-09-21T09:41:46.880Z,3.63
2022-09-21T09:44:43.636Z,5.50
2022-09-21T09:47:21.001Z,3.63
2022-09-21T09:50:15.943Z,3.77
2022-09-21T09:52:44.236Z,4.80
2022-09-21T09:55:30.396Z,4.23
2022-09-21T09:57:59.084Z,3.17
2022-09-21T10:00:28.452Z,5.07
2022-09-21T10:02:58.542Z,3.80
2022-09-21T10:05:32.502Z,4.13
2022-09-21T10:08:00.161Z,3.53
2022-09-21T10:10:30.270Z,4.63
2022-09-21T10:13:05.988Z,4.45
2022-09-21T10:15:33.268Z,4.38
2022-09-21T10:18:07.710Z,3.53
2022-09-21T10:20:34.550Z,3.08
2022-09-21T10:23:01.535Z,3.13
2022-09-21T10:25:28.344Z,5.18
2022-09-21T10:27:56.231Z,2.50
2022-09-21T10:30:35.067Z,5.57
2022-09-21T10:33:02.462Z,2.63
2022-09-21T10:35:30.550Z,5.70
2022-09-21T10:38:12.136Z,5.30
2022-09-21T10:40:40.249Z,4.30
2022-09-21T10:43:31.760Z,4.57
2022-09-21T10:46:00.436Z,3.08
2022-09-21T10:48:28.431Z,4.38
2022-09-21T10:50:56.959Z,4.28
2022-09-21T10:53:32.428Z,5.05
2022-09-21T10:56:20.831Z,3.53
2022-09-21T10:59:10.858Z,3.45
2022-09-21T11:01:45.098Z,6.18
2022-09-21T11:04:16.587Z,5.22
2022-09-21T11:06:51.284Z,4.45
2022-09-21T11:09:34.380Z,7.35
2022-09-21T11:12:27.264Z,7.13
2022-09-21T11:15:02.205Z,5.15
2022-09-21T11:17:47.808Z,3.95
2022-09-21T11:20:41.569Z,5.15
2022-09-21T11:23:44.487Z,2.47
2022-09-21T11:26:27.978Z,2.22
2022-09-21T11:29:06.855Z,3.35
2022-09-21T11:31:52.643Z,4.28
2022-09-21T11:34:38.278Z,3.53
2022-09-21T11:37:20.182Z,3.35
2022-09-21T11:40:11.524Z,3.00
2022-09-21T11:42:56.141Z,4.80
2022-09-21T11:45:33.373Z,2.67
2022-09-21T11:48:13.474Z,2.50
2022-09-21T11:53:57.764Z,3.13
2022-09-21T11:56:36.894Z,4.70
2022-09-21T11:59:09.345Z,4.25
2022-09-21T12:01:50.012Z,3.53
2022-09-21T12:04:19.952Z,7.72
2022-09-21T12:07:17.873Z,3.30
2022-09-21T12:10:15.503Z,3.45
2022-09-21T12:13:03.873Z,1.85
2022-09-21T12:16:03.135Z,2.45
2022-09-21T12:19:13.782Z,4.10
2022-09-21T12:21:48.651Z,3.50
2022-09-21T12:24:22.183Z,2.40
2022-09-21T12:26:55.955Z,4.13
2022-09-21T12:29:26.765Z,1.40
2022-09-21T12:32:13.743Z,2.42
2022-09-21T12:34:49.694Z,1.33
2022-09-21T12:37:25.314Z,2.40
2022-09-21T12:40:07.413Z,4.00
2022-09-21T12:42:43.865Z,1.90
2022-09-21T12:45:33.757Z,2.10
2022-09-21T12:48:31.817Z,1.58
2022-09-21T12:51:07.285Z,1.75
2022-09-21T12:53:38.906Z,1.33
2022-09-21T12:56:29.543Z,3.13
2022-09-21T12:59:06.754Z,3.35
2022-09-21T13:01:56.939Z,2.17
2022-09-21T13:04:58.654Z,1.30
2022-09-21T13:07:44.526Z,2.67
2022-09-21T13:10:31.768Z,1.95
2022-09-21T13:13:02.705Z,2.42
2022-09-21T13:15:42.062Z,3.75
2022-09-21T13:18:36.934Z,2.22
2022-09-21T13:21:24.253Z,1.63
2022-09-21T13:24:00.829Z,2.63
2022-09-21T13:26:37.336Z,1.85
2022-09-21T13:29:19.746Z,1.17
2022-09-21T13:32:04.493Z,1.55
2022-09-21T13:34:39.678Z,2.13
2022-09-21T13:37:15.729Z,3.40
2022-09-21T13:39:51.129Z,1.08
2022-09-21T13:42:30.403Z,3.17
2022-09-21T13:45:01.694Z,4.82
2022-09-21T13:47:33.836Z,1.65
2022-09-21T13:50:14.495Z,2.83
2022-09-21T13:52:52.185Z,4.55
2022-09-21T13:55:35.895Z,2.97
2022-09-21T13:58:18.638Z,2.95
2022-09-21T14:01:01.317Z,2.22
2022-09-21T14:03:31.179Z,3.50
2022-09-21T14:06:23.380Z,3.78
2022-09-21T14:08:59.525Z,4.75
2022-09-21T14:11:33.648Z,6.20
2022-09-21T14:14:13.331Z,2.53
2022-09-21T14:16:41.955Z,2.40
2022-09-21T14:19:17.682Z,4.30
2022-09-21T14:22:09.583Z,3.90
2022-09-21T14:24:46.907Z,3.78
2022-09-21T14:27:41.206Z,5.22
2022-09-21T14:30:24.129Z,6.60
2022-09-21T14:33:27.245Z,4.78
2022-09-21T14:35:55.175Z,5.03
2022-09-21T14:38:40.945Z,5.43
2022-09-21T14:41:08.702Z,4.28
2022-09-21T14:43:37.621Z,2.22
2022-09-21T14:46:25.680Z,3.08
2022-09-21T14:49:47.051Z,4.55
2022-09-21T14:52:35.185Z,3.85
2022-09-21T14:55:41.570Z,2.22
2022-09-21T16:09:46.942Z,5.05
2022-09-21T16:12:32.278Z,2.88
2022-09-21T16:15:19.539Z,3.15
2022-09-21T16:18:06.972Z,5.68
2022-09-21T16:20:48.241Z,2.83
2022-09-21T16:23:23.315Z,4.03
2022-09-21T16:25:56.765Z,6.18
2022-09-21T16:28:42.344Z,6.93
2022-09-21T16:31:34.171Z,6.55
2022-09-21T16:34:22.011Z,5.07
2022-09-21T16:36:51.499Z,4.85
2022-09-21T16:39:19.417Z,3.58
2022-09-21T16:41:51.046Z,5.18
2022-09-21T16:44:25.769Z,3.42
2022-09-21T16:47:03.292Z,3.50
2022-09-21T16:49:35.141Z,2.70
2022-09-21T16:52:02.903Z,3.03
2022-09-21T16:54:30.238Z,2.83
2022-09-21T16:57:02.011Z,2.92
2022-09-21T16:59:29.554Z,3.17
2022-09-21T17:01:58.541Z,2.50
2022-09-21T17:04:28.164Z,4.38
2022-09-21T17:06:55.582Z,3.17
2022-09-21T17:09:35.726Z,4.37
2022-09-21T17:12:04.375Z,5.23
2022-09-21T17:14:35.023Z,3.50
2022-09-21T17:17:08.303Z,3.47
2022-09-21T17:19:35.709Z,4.00
2022-09-21T17:22:04.297Z,5.10
2022-09-21T17:24:49.235Z,6.93
2022-09-21T17:27:19.779Z,5.83
2022-09-21T17:29:50.242Z,5.60
2022-09-21T17:32:22.198Z,7.93
2022-09-21T17:35:12.387Z,7.87
2022-09-21T17:37:39.158Z,5.37
2022-09-21T17:40:10.624Z,4.13
2022-09-21T17:42:44.241Z,6.70
2022-09-21T17:46:06.256Z,5.37
2022-09-21T17:48:34.230Z,6.90
2022-09-21T17:51:01.567Z,6.57
2022-09-21T17:53:36.797Z,5.57
2022-09-21T17:56:17.963Z,6.60
2022-09-21T17:59:05.554Z,5.83
2022-09-21T18:01:40.998Z,7.27
2022-09-21T18:04:11.072Z,4.70
2022-09-21T18:06:38.151Z,8.10
2022-09-21T18:09:05.695Z,6.67
2022-09-21T18:11:47.644Z,4.43
2022-09-21T18:14:44.546Z,6.77
2022-09-21T18:17:47.510Z,5.70
2022-09-21T18:20:29.596Z,8.30
2022-09-21T18:23:15.038Z,6.50
2022-09-21T18:25:49.036Z,8.70
2022-09-21T18:28:42.210Z,4.77
2022-09-21T18:31:21.345Z,7.40
2022-09-21T18:34:02.096Z,7.47
2022-09-21T18:36:52.656Z,6.03
2022-09-21T18:39:38.179Z,7.67
2022-09-21T18:42:39.924Z,6.77
2022-09-21T18:45:23.373Z,7.80
2022-09-21T18:47:59.382Z,8.97
2022-09-21T18:50:45.481Z,9.47
2022-09-21T18:53:21.571Z,8.77
2022-09-21T18:55:49.090Z,8.73
2022-09-21T18:58:16.213Z,8.83
2022-09-21T19:00:43.698Z,8.17
2022-09-21T19:03:18.126Z,9.33
2022-09-21T19:06:06.137Z,7.70
2022-09-21T19:08:58.305Z,9.00
2022-09-21T19:11:35.008Z,9.23
2022-09-21T19:14:13.354Z,9.50
2022-09-21T19:16:55.474Z,10.47
2022-09-21T19:19:28.421Z,10.03
2022-09-21T19:22:04.490Z,7.03
2022-09-21T19:24:37.427Z,10.13
2022-09-21T19:27:16.203Z,8.40
2022-09-21T19:29:54.634Z,11.07
2022-09-21T19:32:53.307Z,9.60
2022-09-21T19:35:31.677Z,9.37
2022-09-21T19:38:01.571Z,9.27
2022-09-21T19:40:34.326Z,8.87
2022-09-21T19:43:30.942Z,11.13
2022-09-21T19:46:22.298Z,9.00
2022-09-21T19:48:53.097Z,9.40
2022-09-21T19:51:45.604Z,9.40
2022-09-21T19:54:37.776Z,9.57
2022-09-21T19:57:35.188Z,9.17
2022-09-21T20:00:02.758Z,11.17
2022-09-21T20:02:36.627Z,9.93
2022-09-21T20:05:16.095Z,10.13
2022-09-21T20:08:06.464Z,10.47
2022-09-21T20:10:55.422Z,12.10
2022-09-21T20:13:37.760Z,11.83
2022-09-21T20:16:23.526Z,11.77
2022-09-21T20:19:09.847Z,12.97
2022-09-21T20:21:42.521Z,14.73
2022-09-21T20:24:20.246Z,13.67
2022-09-21T20:26:50.950Z,17.47
2022-09-21T20:29:19.619Z,14.63
2022-09-21T20:31:48.872Z,15.47
2022-09-21T20:34:15.731Z,16.13
2022-09-21T20:36:42.652Z,15.00
2022-09-21T20:39:10.175Z,13.23
2022-09-21T20:41:38.107Z,13.90
2022-09-21T20:44:05.122Z,12.27
2022-09-21T20:46:32.075Z,11.90
2022-09-21T20:49:05.406Z,13.33
2022-09-21T20:51:36.064Z,10.00
2022-09-21T20:54:03.457Z,13.47
